createdAt,value
2023-04-15T00:01:06.002Z,69.33
2023-04-15T00:03:34.714Z,68.96
2023-04-15T00:06:02.514Z,69.08
2023-04-15T00:08:30.195Z,69.52
2023-04-15T00:10:57.681Z,69.11
2023-04-15T00:13:24.754Z,69.96
2023-04-15T00:15:52.252Z,69.86
2023-04-15T00:18:19.221Z,69.43
2023-04-15T00:20:46.070Z,69.86
2023-04-15T00:23:13.033Z,69.80
2023-04-15T00:25:40.459Z,70.03
2023-04-15T00:28:07.382Z,70.90
2023-04-15T00:30:34.377Z,70.62
2023-04-15T00:33:04.986Z,69.71
2023-04-15T00:35:35.988Z,69.71
2023-04-15T00:38:06.060Z,69.81
2023-04-15T00:40:33.487Z,70.22
2023-04-15T00:43:00.788Z,69.39
2023-04-15T00:45:28.298Z,69.65
2023-04-15T00:47:56.084Z,69.52
2023-04-15T00:50:23.167Z,69.71
2023-04-15T00:52:50.003Z,69.15
2023-04-15T00:55:17.016Z,69.23
2023-04-15T00:57:44.811Z,69.84
2023-04-15T01:00:12.248Z,70.05
2023-04-15T01:02:39.499Z,69.84
2023-04-15T01:05:07.735Z,69.45
2023-04-15T01:07:34.645Z,69.61
2023-04-15T01:10:04.319Z,69.74
2023-04-15T01:12:33.959Z,69.64
2023-04-15T01:15:01.810Z,69.42
2023-04-15T01:17:28.848Z,70.41
2023-04-15T01:19:58.024Z,69.82
2023-04-15T01:22:26.878Z,70.03
2023-04-15T01:25:49.446Z,70.39
2023-04-15T01:28:16.941Z,70.39
2023-04-15T01:30:44.695Z,69.68
2023-04-15T01:33:12.311Z,70.26
2023-04-15T01:35:39.182Z,70.36
2023-04-15T01:38:08.883Z,69.42
2023-04-15T01:40:35.968Z,69.36
2023-04-15T01:43:03.941Z,69.46
2023-04-15T01:45:31.167Z,69.13
2023-04-15T01:47:58.136Z,69.33
2023-04-15T01:50:26.214Z,69.23
2023-04-15T01:52:55.560Z,69.37
2023-04-15T01:55:22.436Z,69.80
2023-04-15T01:57:49.337Z,69.61
2023-04-15T02:00:17.736Z,69.42
2023-04-15T02:02:44.944Z,69.17
2023-04-15T02:05:12.043Z,69.22
2023-04-15T02:07:39.009Z,69.59
2023-04-15T02:10:06.254Z,69.84
2023-04-15T02:12:35.865Z,69.26
2023-04-15T02:15:02.830Z,69.71
2023-04-15T02:17:29.798Z,69.79
2023-04-15T02:19:56.984Z,69.13
2023-04-15T02:22:24.854Z,69.35
2023-04-15T02:24:51.779Z,69.42
2023-04-15T02:27:18.977Z,69.55
2023-04-15T02:29:46.379Z,69.71
2023-04-15T02:32:14.105Z,69.60
2023-04-15T02:34:42.763Z,69.99
2023-04-15T02:37:11.895Z,70.31
2023-04-15T02:39:39.062Z,70.08
2023-04-15T02:42:06.179Z,70.15
2023-04-15T02:44:35.303Z,70.10
2023-04-15T02:47:05.177Z,70.32
2023-04-15T02:49:32.065Z,69.97
2023-04-15T02:52:00.205Z,69.69
2023-04-15T02:54:30.047Z,69.58
2023-04-15T02:56:57.470Z,69.26
2023-04-15T02:59:24.841Z,69.55
2023-04-15T03:01:51.832Z,69.39
2023-04-15T03:04:18.901Z,69.25
2023-04-15T03:06:46.330Z,69.98
2023-04-15T03:09:13.242Z,69.79
2023-04-15T03:11:42.143Z,70.10
2023-04-15T03:14:10.067Z,70.30
2023-04-15T03:16:41.339Z,70.77
2023-04-15T03:19:08.320Z,70.47
2023-04-15T03:21:35.987Z,70.67
2023-04-15T03:24:03.006Z,70.50
2023-04-15T03:26:31.148Z,70.55
2023-04-15T03:29:01.849Z,70.55
2023-04-15T03:31:29.276Z,71.22
2023-04-15T03:33:56.179Z,70.89
2023-04-15T03:36:23.838Z,70.36
2023-04-15T03:38:50.767Z,70.59
2023-04-15T03:41:17.638Z,70.46
2023-04-15T03:43:44.621Z,70.48
2023-04-15T03:46:11.566Z,70.64
2023-04-15T03:48:38.473Z,70.22
2023-04-15T03:51:05.405Z,70.33
2023-04-15T03:53:32.240Z,70.22
2023-04-15T03:55:59.165Z,70.35
2023-04-15T03:58:26.180Z,70.37
2023-04-15T04:00:53.092Z,70.31
2023-04-15T04:03:20.147Z,70.26
2023-04-15T04:05:47.350Z,70.39
2023-04-15T04:08:15.195Z,69.95
2023-04-15T04:10:42.723Z,70.39
2023-04-15T04:13:09.585Z,70.44
2023-04-15T04:15:36.744Z,69.82
2023-04-15T04:18:03.836Z,70.06
2023-04-15T04:20:32.197Z,70.30
2023-04-15T04:22:59.203Z,70.60
2023-04-15T04:25:26.150Z,70.26
2023-04-15T04:27:53.113Z,70.26
2023-04-15T04:30:20.214Z,69.99
2023-04-15T04:32:47.133Z,70.08
2023-04-15T04:35:14.080Z,69.96
2023-04-15T04:37:40.947Z,69.61
2023-04-15T04:40:08.611Z,69.56
2023-04-15T04:42:36.843Z,68.74
2023-04-15T04:45:05.946Z,68.33
2023-04-15T04:47:32.828Z,68.63
2023-04-15T04:49:59.746Z,68.91
2023-04-15T04:52:26.582Z,68.42
2023-04-15T04:54:53.458Z,68.18
2023-04-15T04:57:20.301Z,67.99
2023-04-15T04:59:47.211Z,67.40
2023-04-15T05:02:14.161Z,64.82
2023-04-15T05:04:41.895Z,59.27
2023-04-15T05:07:08.843Z,58.08
2023-04-15T05:09:36.929Z,57.04
2023-04-15T05:12:06.841Z,56.75
2023-04-15T05:14:33.879Z,54.22
2023-04-15T05:17:00.750Z,49.89
2023-04-15T05:19:27.776Z,44.25
2023-04-15T05:21:55.399Z,40.23
2023-04-15T05:24:22.697Z,37.91
2023-04-15T05:26:49.653Z,35.65
2023-04-15T05:29:16.840Z,36.40
2023-04-15T05:31:44.184Z,37.62
2023-04-15T05:34:12.371Z,38.11
2023-04-15T05:36:39.313Z,39.26
2023-04-15T05:39:06.214Z,40.39
2023-04-15T05:41:33.272Z,40.65
2023-04-15T05:44:00.210Z,38.67
2023-04-15T05:46:27.625Z,35.08
2023-04-15T05:48:56.345Z,31.70
2023-04-15T05:51:23.510Z,28.04
2023-04-15T05:53:50.578Z,26.04
2023-04-15T05:56:17.564Z,25.16
2023-04-15T05:58:44.512Z,24.46
2023-04-15T06:01:11.813Z,23.69
2023-04-15T06:03:39.844Z,22.06
2023-04-15T06:06:07.733Z,21.31
2023-04-15T06:08:34.659Z,20.56
2023-04-15T06:11:01.712Z,20.83
2023-04-15T06:13:29.455Z,19.83
2023-04-15T06:15:56.307Z,19.51
2023-04-15T06:18:23.237Z,20.98
2023-04-15T06:20:50.152Z,22.14
2023-04-15T06:23:17.008Z,23.66
2023-04-15T06:25:43.870Z,23.70
2023-04-15T06:28:10.778Z,23.24
2023-04-15T06:30:38.569Z,23.05
2023-04-15T06:33:06.407Z,22.05
2023-04-15T06:35:33.248Z,21.08
2023-04-15T06:38:00.055Z,20.42
2023-04-15T06:40:27.189Z,20.41
2023-04-15T06:42:54.124Z,20.43
2023-04-15T06:45:21.044Z,19.71
2023-04-15T06:47:47.913Z,19.02
2023-04-15T06:50:14.903Z,18.44
2023-04-15T06:52:41.924Z,19.12
2023-04-15T06:55:08.988Z,18.86
2023-04-15T06:57:36.046Z,19.84
2023-04-15T07:00:05.829Z,17.82
2023-04-15T07:02:32.974Z,17.46
2023-04-15T07:04:59.913Z,16.61
2023-04-15T07:07:26.822Z,16.22
2023-04-15T07:09:53.904Z,15.62
2023-04-15T07:12:21.517Z,15.77
2023-04-15T07:14:49.492Z,15.80
2023-04-15T07:17:16.695Z,15.64
2023-04-15T07:19:43.572Z,14.97
2023-04-15T07:22:10.671Z,15.46
2023-04-15T07:24:37.465Z,15.90
2023-04-15T07:27:04.362Z,16.71
2023-04-15T07:29:31.563Z,17.72
2023-04-15T07:31:58.482Z,18.54
2023-04-15T07:34:25.872Z,18.81
2023-04-15T07:36:52.924Z,20.53
2023-04-15T07:39:19.959Z,21.51
2023-04-15T07:41:46.857Z,21.85
2023-04-15T07:44:13.862Z,21.83
2023-04-15T07:46:41.260Z,22.78
2023-04-15T07:49:08.224Z,22.71
2023-04-15T07:51:35.156Z,22.52
2023-04-15T07:54:01.972Z,22.10
2023-04-15T07:56:28.870Z,22.06
2023-04-15T07:58:55.709Z,23.24
2023-04-15T08:01:22.901Z,23.72
2023-04-15T08:03:49.930Z,24.10
2023-04-15T08:06:17.239Z,24.96
2023-04-15T08:08:44.279Z,25.01
2023-04-15T08:11:11.190Z,25.91
2023-04-15T08:13:38.109Z,26.67
2023-04-15T08:16:21.565Z,26.91
2023-04-15T08:18:50.423Z,27.68
2023-04-15T08:21:19.515Z,27.49
2023-04-15T08:23:49.475Z,27.58
2023-04-15T08:26:17.479Z,27.81
2023-04-15T08:28:45.699Z,27.40
2023-04-15T08:31:14.347Z,26.77
2023-04-15T08:33:41.196Z,27.69
2023-04-15T08:36:08.558Z,26.88
2023-04-15T08:38:36.448Z,26.97
2023-04-15T08:41:11.962Z,27.42
2023-04-15T08:43:49.922Z,24.72
2023-04-15T08:46:17.665Z,25.12
2023-04-15T08:48:46.175Z,25.79
2023-04-15T08:51:16.186Z,25.81
2023-04-15T08:53:44.855Z,24.87
2023-04-15T08:56:14.360Z,24.46
2023-04-15T08:58:45.146Z,25.50
2023-04-15T09:01:15.363Z,25.69
2023-04-15T09:03:42.715Z,25.55
2023-04-15T09:06:09.889Z,23.92
2023-04-15T09:08:36.795Z,24.69
2023-04-15T09:11:04.266Z,25.74
2023-04-15T09:13:31.803Z,25.01
2023-04-15T09:15:58.832Z,25.07
2023-04-15T09:18:34.310Z,24.87
2023-04-15T09:21:11.219Z,25.77
2023-04-15T09:23:56.241Z,25.31
2023-04-15T09:26:37.211Z,24.80
2023-04-15T09:29:09.292Z,24.91
2023-04-15T09:31:38.785Z,24.51
2023-04-15T09:34:06.276Z,24.01
2023-04-15T09:37:02.542Z,23.90
2023-04-15T09:39:46.365Z,22.57
2023-04-15T09:42:13.304Z,21.65
2023-04-15T09:44:40.536Z,21.46
2023-04-15T09:47:07.541Z,21.85
2023-04-15T09:49:34.529Z,22.31
2023-04-15T09:52:06.195Z,22.07
2023-04-15T09:54:38.189Z,21.85
2023-04-15T09:57:07.338Z,20.89
2023-04-15T09:59:34.511Z,21.85
2023-04-15T10:02:09.990Z,22.06
2023-04-15T10:04:41.519Z,21.66
2023-04-15T10:07:10.004Z,22.24
2023-04-15T10:09:38.329Z,22.47
2023-04-15T10:12:05.874Z,22.27
2023-04-15T10:14:35.877Z,22.02
2023-04-15T10:17:05.564Z,21.50
2023-04-15T10:19:36.546Z,21.50
2023-04-15T10:22:04.289Z,21.37
2023-04-15T10:24:33.176Z,20.80
2023-04-15T10:27:00.655Z,19.84
2023-04-15T10:29:27.833Z,19.38
2023-04-15T10:31:56.524Z,19.41
2023-04-15T10:34:24.904Z,19.83
2023-04-15T10:36:52.112Z,19.57
2023-04-15T10:39:34.870Z,19.33
2023-04-15T10:42:13.044Z,18.82
2023-04-15T10:44:42.240Z,18.39
2023-04-15T10:47:14.258Z,19.38
2023-04-15T10:50:01.718Z,20.02
2023-04-15T10:52:29.746Z,19.60
2023-04-15T10:55:11.368Z,20.34
2023-04-15T10:57:40.095Z,20.06
2023-04-15T11:00:17.511Z,20.28
2023-04-15T11:02:47.573Z,20.50
2023-04-15T11:05:19.164Z,20.23
2023-04-15T11:07:58.642Z,21.24
2023-04-15T11:10:25.936Z,20.39
2023-04-15T11:12:56.840Z,16.93
2023-04-15T11:15:31.168Z,16.27
2023-04-15T11:18:10.159Z,16.54
2023-04-15T11:20:38.815Z,16.43
2023-04-15T11:23:13.967Z,16.20
2023-04-15T11:25:43.300Z,16.77
2023-04-15T11:28:12.047Z,17.15
2023-04-15T11:30:40.215Z,17.18
2023-04-15T11:33:09.349Z,17.41
2023-04-15T11:35:36.933Z,17.39
2023-04-15T11:38:10.997Z,17.57
2023-04-15T11:40:38.672Z,18.86
2023-04-15T11:43:21.546Z,17.82
2023-04-15T11:46:00.221Z,18.06
2023-04-15T11:48:32.537Z,18.12
2023-04-15T11:51:00.511Z,17.76
2023-04-15T11:53:48.048Z,17.31
2023-04-15T11:56:26.563Z,17.71
2023-04-15T11:58:58.792Z,18.12
2023-04-15T12:01:36.686Z,16.89
2023-04-15T12:04:12.178Z,18.02
2023-04-15T12:06:39.417Z,19.05
2023-04-15T12:09:13.218Z,19.61
2023-04-15T12:11:48.469Z,17.53
2023-04-15T12:14:29.550Z,17.17
2023-04-15T12:17:02.872Z,17.17
2023-04-15T12:19:43.385Z,16.32
2023-04-15T12:22:13.135Z,16.90
2023-04-15T12:24:40.456Z,15.11
2023-04-15T12:27:10.155Z,15.32
2023-04-15T12:29:39.206Z,15.10
2023-04-15T12:32:08.702Z,14.81
2023-04-15T12:34:37.010Z,15.29
2023-04-15T12:37:05.776Z,14.14
2023-04-15T12:39:36.442Z,14.73
2023-04-15T12:42:06.650Z,14.63
2023-04-15T12:44:34.320Z,13.85
2023-04-15T12:47:01.379Z,13.88
2023-04-15T12:49:28.556Z,13.10
2023-04-15T12:51:57.601Z,13.71
2023-04-15T12:54:24.499Z,13.49
2023-04-15T12:56:51.893Z,14.23
2023-04-15T12:59:18.878Z,14.77
2023-04-15T13:01:47.568Z,15.27
2023-04-15T13:04:15.588Z,13.94
2023-04-15T13:06:43.126Z,14.59
2023-04-15T13:09:10.152Z,15.32
2023-04-15T13:11:37.295Z,14.16
2023-04-15T13:14:06.473Z,14.77
2023-04-15T13:16:34.690Z,14.78
2023-04-15T13:19:04.184Z,14.87
2023-04-15T13:21:35.683Z,14.95
2023-04-15T13:24:04.534Z,14.82
2023-04-15T13:26:32.090Z,15.29
2023-04-15T13:28:59.832Z,16.06
2023-04-15T13:31:27.290Z,17.28
2023-04-15T13:33:54.449Z,18.33
2023-04-15T13:36:21.506Z,18.25
2023-04-15T13:38:50.930Z,18.35
2023-04-15T13:41:18.661Z,18.70
2023-04-15T13:43:45.729Z,19.04
2023-04-15T13:46:14.664Z,17.93
2023-04-15T13:48:41.864Z,18.37
2023-04-15T13:51:08.781Z,17.90
2023-04-15T13:53:39.144Z,18.16
2023-04-15T13:56:08.716Z,18.23
2023-04-15T13:58:36.781Z,18.28
2023-04-15T14:01:05.857Z,17.19
2023-04-15T14:03:34.062Z,17.25
2023-04-15T14:06:01.344Z,16.98
2023-04-15T14:08:28.339Z,17.85
2023-04-15T14:10:55.397Z,19.02
2023-04-15T14:13:22.223Z,18.82
2023-04-15T14:15:49.115Z,19.56
2023-04-15T14:18:16.090Z,17.06
2023-04-15T14:20:42.904Z,16.30
2023-04-15T14:23:09.810Z,15.73
2023-04-15T14:25:39.199Z,15.77
2023-04-15T14:28:06.093Z,16.38
2023-04-15T14:30:33.266Z,16.70
2023-04-15T14:33:00.527Z,16.71
2023-04-15T14:35:28.150Z,16.97
2023-04-15T14:37:55.836Z,16.99
2023-04-15T14:40:22.984Z,17.44
2023-04-15T14:42:49.972Z,17.12
2023-04-15T14:45:17.817Z,17.59
2023-04-15T14:47:45.061Z,17.74
2023-04-15T14:50:12.303Z,17.98
2023-04-15T14:52:39.415Z,17.82
2023-04-15T14:55:10.694Z,17.52
2023-04-15T14:57:38.768Z,17.00
2023-04-15T15:00:07.472Z,17.16
2023-04-15T15:02:39.603Z,16.81
2023-04-15T15:05:08.565Z,17.12
2023-04-15T15:07:39.514Z,17.06
2023-04-15T15:10:07.256Z,17.28
2023-04-15T15:12:34.478Z,17.98
2023-04-15T15:15:04.963Z,18.47
2023-04-15T15:17:36.483Z,19.15
2023-04-15T15:20:04.170Z,19.50
2023-04-15T15:22:31.037Z,19.95
2023-04-15T15:24:59.909Z,19.84
2023-04-15T15:27:27.968Z,20.48
2023-04-15T15:29:56.701Z,20.51
2023-04-15T15:32:23.625Z,20.69
2023-04-15T15:34:50.636Z,20.76
2023-04-15T15:37:18.381Z,20.45
2023-04-15T15:39:45.456Z,20.42
2023-04-15T15:42:12.448Z,20.57
2023-04-15T15:44:39.313Z,20.06
2023-04-15T15:47:06.639Z,20.54
2023-04-15T15:49:33.802Z,21.10
2023-04-15T15:52:00.908Z,20.62
2023-04-15T15:54:27.956Z,21.01
2023-04-15T15:56:54.907Z,21.40
2023-04-15T15:59:21.768Z,21.23
2023-04-15T16:01:49.392Z,20.89
2023-04-15T16:04:16.598Z,20.66
2023-04-15T16:06:46.772Z,20.70
2023-04-15T16:09:14.100Z,20.72
2023-04-15T16:11:41.696Z,20.91
2023-04-15T16:14:08.612Z,20.50
2023-04-15T16:16:35.732Z,20.12
2023-04-15T16:19:02.879Z,19.93
2023-04-15T16:21:30.632Z,20.32
2023-04-15T16:23:57.804Z,20.75
2023-04-15T16:26:24.749Z,20.77
2023-04-15T16:28:51.613Z,21.16
2023-04-15T16:31:18.506Z,21.31
2023-04-15T16:33:45.338Z,21.85
2023-04-15T16:36:12.230Z,21.96
2023-04-15T16:38:39.061Z,21.82
2023-04-15T16:41:06.088Z,21.47
2023-04-15T16:43:33.112Z,21.96
2023-04-15T16:46:00.069Z,22.11
2023-04-15T16:48:27.167Z,22.10
2023-04-15T16:50:53.992Z,22.15
2023-04-15T16:53:21.012Z,22.50
2023-04-15T16:55:47.888Z,22.63
2023-04-15T16:58:15.604Z,22.83
2023-04-15T17:00:42.717Z,23.28
2023-04-15T17:03:09.777Z,23.45
2023-04-15T17:05:36.799Z,23.94
2023-04-15T17:08:04.972Z,23.99
2023-04-15T17:10:31.778Z,23.97
2023-04-15T17:12:59.313Z,24.50
2023-04-15T17:15:27.259Z,24.98
2023-04-15T17:17:54.506Z,25.22
2023-04-15T17:20:21.725Z,25.82
2023-04-15T17:22:49.225Z,26.23
2023-04-15T17:25:16.143Z,26.32
2023-04-15T17:27:43.152Z,27.32
2023-04-15T17:30:10.764Z,27.72
2023-04-15T17:32:39.494Z,27.49
2023-04-15T17:35:07.114Z,27.49
2023-04-15T17:37:34.603Z,27.75
2023-04-15T17:40:02.250Z,27.91
2023-04-15T17:42:29.329Z,27.89
2023-04-15T17:44:56.199Z,28.66
2023-04-15T17:47:23.163Z,29.12
2023-04-15T17:49:50.106Z,29.47
2023-04-15T17:52:16.999Z,29.26
2023-04-15T17:54:43.805Z,29.42
2023-04-15T17:57:10.796Z,29.37
2023-04-15T17:59:37.677Z,29.78
2023-04-15T18:02:04.715Z,29.92
2023-04-15T18:04:31.789Z,29.93
2023-04-15T18:06:58.916Z,30.28
2023-04-15T18:09:26.984Z,30.77
2023-04-15T18:11:53.936Z,30.96
2023-04-15T18:14:33.689Z,31.19
2023-04-15T18:17:02.737Z,31.73
2023-04-15T18:19:30.877Z,31.80
2023-04-15T18:22:00.436Z,31.88
2023-04-15T18:24:28.061Z,32.17
2023-04-15T18:26:55.153Z,32.07
2023-04-15T18:29:22.429Z,32.28
2023-04-15T18:31:49.409Z,32.49
2023-04-15T18:34:16.373Z,32.93
2023-04-15T18:36:43.558Z,33.25
2023-04-15T18:39:10.633Z,33.04
2023-04-15T18:41:37.588Z,32.93
2023-04-15T18:44:04.495Z,32.98
2023-04-15T18:46:31.421Z,33.22
2023-04-15T18:48:58.437Z,32.97
2023-04-15T18:51:25.897Z,32.68
2023-04-15T18:53:52.845Z,32.77
2023-04-15T18:56:20.544Z,32.43
2023-04-15T18:59:26.933Z,33.37
2023-04-15T19:01:34.494Z,33.18
2023-04-15T19:04:02.435Z,33.79
2023-04-15T19:06:29.476Z,33.66
2023-04-15T19:08:58.526Z,34.17
2023-04-15T19:11:26.749Z,34.74
2023-04-15T19:13:54.440Z,35.41
2023-04-15T19:16:21.331Z,35.47
2023-04-15T19:18:48.507Z,36.72
2023-04-15T19:21:15.911Z,37.54
2023-04-15T19:23:43.254Z,37.95
2023-04-15T19:26:11.682Z,38.19
2023-04-15T19:28:38.583Z,38.11
2023-04-15T19:31:05.857Z,38.58
2023-04-15T19:33:32.956Z,37.98
2023-04-15T19:36:05.925Z,38.78
2023-04-15T19:38:37.839Z,40.33
2023-04-15T19:41:04.667Z,40.75
2023-04-15T19:43:32.852Z,40.14
2023-04-15T19:45:59.922Z,41.05
2023-04-15T19:48:27.073Z,42.42
2023-04-15T19:50:54.045Z,41.85
2023-04-15T19:53:21.005Z,41.33
2023-04-15T19:55:48.495Z,43.09
2023-04-15T19:58:16.277Z,43.41
2023-04-15T20:00:43.220Z,42.92
2023-04-15T20:03:11.041Z,43.74
2023-04-15T20:05:38.088Z,44.81
2023-04-15T20:08:06.365Z,44.80
2023-04-15T20:10:33.293Z,45.25
2023-04-15T20:13:00.314Z,45.64
2023-04-15T20:15:27.358Z,46.15
2023-04-15T20:17:54.567Z,46.25
2023-04-15T20:20:21.797Z,46.69
2023-04-15T20:22:49.015Z,46.62
2023-04-15T20:25:15.863Z,46.37
2023-04-15T20:27:44.684Z,47.05
2023-04-15T20:30:11.764Z,46.77
2023-04-15T20:32:38.989Z,46.44
2023-04-15T20:35:07.016Z,46.97
2023-04-15T20:37:34.261Z,47.41
2023-04-15T20:40:01.674Z,46.96
2023-04-15T20:42:33.570Z,47.02
2023-04-15T20:45:01.262Z,47.34
2023-04-15T20:47:28.458Z,48.37
2023-04-15T20:49:55.576Z,47.88
2023-04-15T20:52:22.470Z,48.32
2023-04-15T20:54:49.983Z,48.56
2023-04-15T20:57:17.022Z,48.80
2023-04-15T20:59:44.078Z,48.54
2023-04-15T21:02:11.202Z,48.44
2023-04-15T21:04:38.933Z,48.46
2023-04-15T21:07:06.016Z,48.83
2023-04-15T21:09:32.996Z,49.08
2023-04-15T21:12:01.915Z,51.07
2023-04-15T21:14:29.749Z,51.28
2023-04-15T21:16:58.319Z,50.19
2023-04-15T21:19:25.299Z,50.66
2023-04-15T21:21:52.570Z,50.85
2023-04-15T21:24:19.553Z,51.19
2023-04-15T21:26:46.428Z,51.62
2023-04-15T21:29:13.720Z,52.52
2023-04-15T21:31:40.876Z,52.68
2023-04-15T21:34:08.048Z,53.23
2023-04-15T21:36:35.427Z,53.52
2023-04-15T21:39:02.468Z,52.56
2023-04-15T21:41:29.596Z,52.11
2023-04-15T21:43:56.983Z,51.90
2023-04-15T21:46:25.354Z,51.60
2023-04-15T21:48:53.620Z,51.38
2023-04-15T21:51:20.606Z,51.86
2023-04-15T21:53:48.045Z,52.06
2023-04-15T21:56:14.901Z,52.48
2023-04-15T21:58:41.822Z,53.62
2023-04-15T22:01:08.725Z,53.55
2023-04-15T22:03:35.813Z,53.20
2023-04-15T22:06:03.990Z,53.03
2023-04-15T22:08:41.292Z,52.75
2023-04-15T22:11:28.819Z,52.90
2023-04-15T22:13:58.606Z,52.48
2023-04-15T22:16:26.459Z,52.81
2023-04-15T22:18:54.072Z,54.11
2023-04-15T22:21:20.986Z,54.01
2023-04-15T22:23:49.337Z,54.62
2023-04-15T22:26:16.301Z,54.33
2023-04-15T22:28:43.358Z,55.03
2023-04-15T22:31:10.516Z,54.70
2023-04-15T22:33:37.544Z,54.78
2023-04-15T22:36:04.479Z,54.13
2023-04-15T22:38:31.541Z,54.43
2023-04-15T22:40:58.596Z,54.91
2023-04-15T22:43:26.140Z,55.57
2023-04-15T22:45:55.122Z,56.56
2023-04-15T22:48:22.921Z,55.80
2023-04-15T22:50:50.172Z,56.32
2023-04-15T22:53:17.838Z,57.08
2023-04-15T22:55:46.561Z,57.64
2023-04-15T22:58:14.171Z,57.21
2023-04-15T23:00:41.103Z,57.83
2023-04-15T23:03:08.345Z,58.37
2023-04-15T23:05:35.398Z,58.18
2023-04-15T23:08:02.578Z,57.51
2023-04-15T23:10:29.670Z,57.93
2023-04-15T23:12:56.644Z,57.69
2023-04-15T23:15:23.672Z,57.92
2023-04-15T23:17:50.795Z,58.38
2023-04-15T23:20:17.832Z,58.44
2023-04-15T23:22:45.820Z,59.43
2023-04-15T23:25:12.636Z,59.78
2023-04-15T23:27:39.556Z,59.51
2023-04-15T23:30:07.270Z,59.86
2023-04-15T23:32:34.242Z,60.60
2023-04-15T23:35:01.140Z,60.67
2023-04-15T23:37:33.925Z,60.70
2023-04-15T23:40:01.051Z,60.12
2023-04-15T23:42:27.904Z,59.91
2023-04-15T23:44:54.856Z,60.33
2023-04-15T23:47:22.171Z,61.54
2023-04-15T23:49:49.145Z,61.34
2023-04-15T23:52:16.057Z,61.01
2023-04-15T23:54:42.974Z,60.99
2023-04-15T23:57:09.872Z,60.95
2023-04-15T23:59:36.734Z,62.36
